Time;durP1;ratioP1;P1;durP2;ratioP2;P2;SDS_P1;SDS_P2;PMS_P1;PMS_P2;Temp;Humidity;BMP_temperature;BMP_pressure;BME280_temperature;BME280_humidity;BME280_pressure;Samples;Min_cycle;Max_cycle;Signal;HPM_P1;HPM_P2
2023/01/25 00:00:40;;;;;;;;;;;;;;;9.77;47.32;102814.84;4968482;27;97863;-64
2023/01/25 00:03:06;;;;;;;;;;;;;;;9.76;47.30;102822.09;4964326;27;129900;-65
2023/01/25 00:05:32;;;;;;;;;;;;;;;9.76;47.26;102822.09;4976619;27;126009;-66
2023/01/25 00:07:58;;;;;;;;;;;;;;;9.77;47.66;102820.25;4968583;27;127318;-66
2023/01/25 00:10:24;;;;;;;;;;;;;;;9.77;47.08;102825.63;4966463;27;112210;-66
2023/01/25 00:12:50;;;;;;;;;;;;;;;9.77;46.94;102820.25;4977169;27;126209;-66
2023/01/25 00:15:16;;;;;;;;;;;;;;;9.76;47.00;102815.91;4962657;27;129160;-66
2023/01/25 00:17:41;;;;;;;;;;;;;;;9.77;47.00;102812.16;4967407;27;98940;-66
2023/01/25 00:20:08;;;;;;;;;;;;;;;9.76;47.38;102821.28;4965244;27;98930;-66
2023/01/25 00:22:34;;;;;;;;;;;;;;;9.75;47.27;102814.25;4962042;27;100515;-66
2023/01/25 00:25:00;;;;;;;;;;;;;;;9.75;46.74;102807.00;4977329;27;98500;-66
2023/01/25 00:27:26;;;;;;;;;;;;;;;9.74;47.42;102807.19;4967407;27;126844;-66
2023/01/25 00:29:52;;;;;;;;;;;;;;;9.74;47.61;102809.88;4966416;27;113834;-67
2023/01/25 00:32:20;;;;;;;;;;;;;;;9.74;47.45;102809.88;4969151;27;128031;-66
2023/01/25 00:34:50;;;;;;;;;;;;;;;9.74;47.11;102813.38;4995690;27;98101;-66
2023/01/25 00:37:34;;;;;;;;;;;;;;;9.72;47.31;102807.41;4965957;27;101555;-66
2023/01/25 00:40:00;;;;;;;;;;;;;;;9.73;47.08;102800.13;4987592;27;99588;-67
2023/01/25 00:42:26;;;;;;;;;;;;;;;9.73;47.41;102802.81;4980030;27;99183;-66
2023/01/25 00:44:52;;;;;;;;;;;;;;;9.72;46.65;102796.63;4969466;27;130117;-66
2023/01/25 00:47:18;;;;;;;;;;;;;;;9.72;47.31;102798.50;4997542;27;126071;-66
2023/01/25 00:49:44;;;;;;;;;;;;;;;9.72;47.00;102799.31;4994348;27;97991;-66
2023/01/25 00:52:10;;;;;;;;;;;;;;;9.73;46.85;102792.06;4980576;27;98268;-65
2023/01/25 00:54:36;;;;;;;;;;;;;;;9.72;46.89;102787.72;4992162;27;128694;-67
2023/01/25 00:57:02;;;;;;;;;;;;;;;9.70;47.56;102782.50;4977603;27;97993;-66
2023/01/25 00:59:28;;;;;;;;;;;;;;;9.71;46.97;102789.59;4980416;27;98205;-66
2023/01/25 01:01:54;;;;;;;;;;;;;;;9.72;46.97;102782.31;4981445;27;100157;-66
2023/01/25 01:04:23;;;;;;;;;;;;;;;9.71;46.81;102773.41;4965665;27;99836;-65
2023/01/25 01:06:49;;;;;;;;;;;;;;;9.70;47.52;102774.44;4978987;27;97930;-66
2023/01/25 01:09:16;;;;;;;;;;;;;;;9.74;47.38;102761.38;4979353;27;107215;-66
2023/01/25 01:11:42;;;;;;;;;;;;;;;9.81;47.44;102757.66;4965768;27;100074;-66
2023/01/25 01:14:08;;;;;;;;;;;;;;;9.89;47.33;102753.94;4975763;27;125569;-66
2023/01/25 01:16:34;;;;;;;;;;;;;;;9.96;46.99;102748.56;4964416;27;99522;-67
2023/01/25 01:19:00;;;;;;;;;;;;;;;10.00;47.48;102747.94;5001468;27;112121;-68
2023/01/25 01:21:26;;;;;;;;;;;;;;;10.05;47.52;102752.69;5001422;27;126531;-67
2023/01/25 01:23:53;;;;;;;;;;;;;;;10.07;47.02;102731.75;4982039;27;129334;-66
2023/01/25 01:26:19;;;;;;;;;;;;;;;10.12;47.09;102739.22;4979680;27;119169;-67
2023/01/25 01:28:45;;;;;;;;;;;;;;;10.13;47.30;102733.59;4960599;27;112070;-66
2023/01/25 01:31:18;;;;;;;;;;;;;;;10.16;47.53;102732.38;4981817;27;114289;-66
2023/01/25 01:33:47;;;;;;;;;;;;;;;10.17;47.16;102724.06;4974347;27;124350;-66
2023/01/25 01:36:17;;;;;;;;;;;;;;;10.19;47.24;102719.31;4990367;27;97906;-66
2023/01/25 01:38:43;;;;;;;;;;;;;;;10.20;47.09;102725.50;4982500;27;108954;-66
2023/01/25 01:41:09;;;;;;;;;;;;;;;10.21;47.25;102725.28;4981708;27;127271;-66
2023/01/25 01:43:35;;;;;;;;;;;;;;;10.22;47.15;102729.66;4964658;27;100085;-66
2023/01/25 01:46:03;;;;;;;;;;;;;;;10.22;47.31;102726.16;4980264;27;98439;-66
2023/01/25 01:48:31;;;;;;;;;;;;;;;10.21;47.15;102725.28;4995466;27;97991;-66
2023/01/25 01:51:02;;;;;;;;;;;;;;;10.22;47.29;102715.38;4979147;27;98121;-66
2023/01/25 01:53:28;;;;;;;;;;;;;;;10.22;47.09;102712.66;4993919;27;121820;-65
2023/01/25 01:55:55;;;;;;;;;;;;;;;10.22;47.13;102704.59;4976560;27;126585;-65
2023/01/25 01:58:21;;;;;;;;;;;;;;;10.22;47.20;102702.72;4980355;27;97835;-67
2023/01/25 02:00:47;;;;;;;;;;;;;;;10.21;47.26;102698.34;4990593;27;128106;-67
2023/01/25 02:03:15;;;;;;;;;;;;;;;10.21;47.56;102692.13;4997196;27;127184;-67
2023/01/25 02:05:56;;;;;;;;;;;;;;;10.21;46.93;102692.94;4967470;27;98017;-66
2023/01/25 02:08:22;;;;;;;;;;;;;;;10.19;47.10;102686.97;4995051;27;109521;-67
2023/01/25 02:10:48;;;;;;;;;;;;;;;10.20;46.91;102687.78;4987801;27;127769;-66
2023/01/25 02:13:14;;;;;;;;;;;;;;;10.19;47.55;102686.13;4993230;27;98917;-66
2023/01/25 02:15:48;;;;;;;;;;;;;;;10.19;47.19;102675.34;4991874;27;126557;-67
2023/01/25 02:18:14;;;;;;;;;;;;;;;10.18;47.55;102679.06;4993669;27;98120;-67
2023/01/25 02:20:42;;;;;;;;;;;;;;;10.17;47.10;102672.84;4991779;27;100758;-66
2023/01/25 02:23:46;;;;;;;;;;;;;;;10.17;47.42;102675.53;4979899;27;98657;-66
2023/01/25 02:26:12;;;;;;;;;;;;;;;10.16;47.26;102679.28;4993446;27;99723;-66
2023/01/25 02:28:46;;;;;;;;;;;;;;;10.15;47.57;102674.13;4994096;27;97992;-66
2023/01/25 02:31:12;;;;;;;;;;;;;;;10.15;47.31;102676.81;4989610;27;98069;-66
2023/01/25 02:33:38;;;;;;;;;;;;;;;10.15;46.87;102669.56;4991992;27;128204;-67
2023/01/25 02:36:07;;;;;;;;;;;;;;;10.14;46.93;102673.28;4976285;27;127584;-68
2023/01/25 02:38:34;;;;;;;;;;;;;;;10.13;47.57;102668.91;4996106;27;97816;-66
2023/01/25 02:41:13;;;;;;;;;;;;;;;10.14;46.88;102667.06;4978648;27;116031;-66
2023/01/25 02:43:38;;;;;;;;;;;;;;;10.12;47.59;102664.56;4965045;27;114082;-67
2023/01/25 02:46:26;;;;;;;;;;;;;;;10.12;47.19;102674.53;4965203;27;126430;-68
2023/01/25 02:48:52;;;;;;;;;;;;;;;10.12;46.83;102669.16;4976787;27;97969;-65
2023/01/25 02:51:18;;;;;;;;;;;;;;;10.11;47.05;102668.31;4980287;27;98131;-66
2023/01/25 02:53:44;;;;;;;;;;;;;;;10.11;47.13;102671.00;4991438;27;118411;-66
2023/01/25 02:56:10;;;;;;;;;;;;;;;10.10;47.12;102663.97;4976687;27;128623;-66
2023/01/25 02:58:36;;;;;;;;;;;;;;;10.10;47.26;102653.19;4994432;27;112516;-67
2023/01/25 03:01:02;;;;;;;;;;;;;;;10.10;47.33;102658.59;4986391;27;127203;-67
2023/01/25 03:03:28;;;;;;;;;;;;;;;10.08;47.57;102661.47;4975114;27;98660;-66
2023/01/25 03:05:54;;;;;;;;;;;;;;;10.09;46.79;102665.00;4962969;27;126658;-66
2023/01/25 03:08:20;;;;;;;;;;;;;;;10.08;47.57;102668.72;4994111;27;100464;-67
2023/01/25 03:10:46;;;;;;;;;;;;;;;10.07;47.57;102659.81;4970560;27;122125;-67
2023/01/25 03:13:12;;;;;;;;;;;;;;;10.07;47.02;102657.13;4964372;27;128939;-67
2023/01/25 03:15:38;;;;;;;;;;;;;;;10.06;47.56;102655.47;4992886;27;128165;-68
2023/01/25 03:18:03;;;;;;;;;;;;;;;10.07;47.47;102657.13;4981632;27;98480;-67
2023/01/25 03:20:29;;;;;;;;;;;;;;;10.06;47.09;102652.78;4965769;27;128441;-65
2023/01/25 03:22:55;;;;;;;;;;;;;;;10.06;47.11;102652.78;4977837;27;98210;-66
2023/01/25 03:25:21;;;;;;;;;;;;;;;10.05;46.92;102647.59;4977685;27;128464;-66
2023/01/25 03:27:48;;;;;;;;;;;;;;;10.05;46.85;102648.41;4982065;27;97912;-66
2023/01/25 03:30:14;;;;;;;;;;;;;;;10.05;47.13;102655.69;4968219;27;127397;-65
2023/01/25 03:32:39;;;;;;;;;;;;;;;10.05;46.91;102651.09;4970528;27;127703;-66
2023/01/25 03:35:06;;;;;;;;;;;;;;;10.05;46.91;102652.97;4979399;27;127260;-67
2023/01/25 03:37:33;;;;;;;;;;;;;;;10.05;47.11;102650.28;4984895;27;99249;-65
2023/01/25 03:39:58;;;;;;;;;;;;;;;10.03;47.47;102652.38;4969745;27;99540;-66
2023/01/25 03:42:24;;;;;;;;;;;;;;;10.04;47.19;102657.53;4960710;27;130446;-66
2023/01/25 03:44:50;;;;;;;;;;;;;;;10.03;47.19;102653.22;4979017;27;127534;-65
2023/01/25 03:47:16;;;;;;;;;;;;;;;10.03;47.50;102652.38;4977728;27;112097;-66
2023/01/25 03:49:42;;;;;;;;;;;;;;;10.03;47.62;102652.38;4979038;27;128207;-66
2023/01/25 03:52:08;;;;;;;;;;;;;;;10.03;47.15;102647.00;4980426;27;126936;-67
2023/01/25 03:54:34;;;;;;;;;;;;;;;10.03;47.23;102647.00;4996578;27;98091;-68
2023/01/25 03:57:00;;;;;;;;;;;;;;;10.02;47.10;102653.41;4962346;27;110666;-67
2023/01/25 03:59:26;;;;;;;;;;;;;;;10.01;47.55;102647.19;4982174;27;124898;-66
2023/01/25 04:01:52;;;;;;;;;;;;;;;10.01;46.92;102643.66;4976608;27;127576;-66
2023/01/25 04:04:17;;;;;;;;;;;;;;;10.01;46.99;102646.34;4968164;27;126969;-66
2023/01/25 04:06:43;;;;;;;;;;;;;;;10.01;47.05;102632.88;4970293;27;113439;-66
2023/01/25 04:09:09;;;;;;;;;;;;;;;10.00;47.08;102632.06;4981153;27;127488;-66
2023/01/25 04:11:35;;;;;;;;;;;;;;;10.01;47.45;102627.50;4984502;27;98799;-67
2023/01/25 04:14:01;;;;;;;;;;;;;;;10.00;47.52;102623.97;4980049;27;126462;-66
2023/01/25 04:16:29;;;;;;;;;;;;;;;10.00;47.48;102626.69;4979699;27;112473;-65
2023/01/25 04:18:55;;;;;;;;;;;;;;;10.00;47.31;102626.69;4971160;27;97831;-66
2023/01/25 04:21:21;;;;;;;;;;;;;;;10.00;47.31;102626.69;4984842;27;102081;-65
2023/01/25 04:23:47;;;;;;;;;;;;;;;10.01;47.22;102619.41;4978298;27;98008;-66
2023/01/25 04:26:13;;;;;;;;;;;;;;;10.00;46.89;102621.28;4982067;27;110603;-66
2023/01/25 04:28:39;;;;;;;;;;;;;;;10.00;46.83;102623.97;4981035;27;99908;-66
2023/01/25 04:31:05;;;;;;;;;;;;;;;10.00;47.23;102623.97;4992264;27;110592;-67
2023/01/25 04:33:31;;;;;;;;;;;;;;;10.01;47.04;102620.22;4984933;27;99297;-65
2023/01/25 04:35:58;;;;;;;;;;;;;;;10.01;47.03;102622.94;4980107;27;106504;-67
2023/01/25 04:38:24;;;;;;;;;;;;;;;10.01;47.40;102617.53;4979747;27;100245;-67
2023/01/25 04:40:50;;;;;;;;;;;;;;;10.01;47.27;102612.16;4983348;27;99421;-66
2023/01/25 04:43:16;;;;;;;;;;;;;;;10.02;47.21;102612.97;4976648;27;113189;-66
2023/01/25 04:45:42;;;;;;;;;;;;;;;10.02;46.97;102607.59;4980174;27;116259;-67
2023/01/25 04:48:09;;;;;;;;;;;;;;;10.03;47.19;102611.97;4979886;27;98605;-66
2023/01/25 04:50:36;;;;;;;;;;;;;;;10.04;47.28;102600.97;4966087;27;97806;-67
2023/01/25 04:53:02;;;;;;;;;;;;;;;10.05;46.94;102601.78;4979345;27;98326;-66
2023/01/25 04:55:28;;;;;;;;;;;;;;;10.05;47.50;102608.00;4982970;27;97971;-65
2023/01/25 04:57:54;;;;;;;;;;;;;;;10.07;46.99;102607.81;4978284;27;125311;-65
2023/01/25 05:00:20;;;;;;;;;;;;;;;10.06;47.56;102606.97;4992091;27;109890;-66
2023/01/25 05:02:46;;;;;;;;;;;;;;;10.07;47.15;102600.53;4980270;27;127786;-65
2023/01/25 05:05:12;;;;;;;;;;;;;;;10.08;47.47;102596.81;4979970;27;98616;-66
2023/01/25 05:07:38;;;;;;;;;;;;;;;10.08;47.33;102591.41;4981604;27;98036;-66
2023/01/25 05:10:04;;;;;;;;;;;;;;;10.10;47.38;102591.22;4977465;27;98004;-66
2023/01/25 05:12:30;;;;;;;;;;;;;;;10.10;47.13;102588.53;4965893;27;117384;-66
2023/01/25 05:14:56;;;;;;;;;;;;;;;10.11;47.46;102586.66;4965565;27;107213;-66
2023/01/25 05:17:22;;;;;;;;;;;;;;;10.11;47.37;102576.69;4978106;27;128783;-66
2023/01/25 05:19:48;;;;;;;;;;;;;;;10.12;47.44;102575.66;4975750;27;127793;-67
2023/01/25 05:22:15;;;;;;;;;;;;;;;10.13;46.88;102576.47;4967758;27;128176;-67
2023/01/25 05:24:41;;;;;;;;;;;;;;;10.13;47.54;102568.38;4991149;27;98017;-66
2023/01/25 05:27:08;;;;;;;;;;;;;;;10.13;46.90;102566.50;4978751;27;100185;-66
2023/01/25 05:29:35;;;;;;;;;;;;;;;10.14;46.96;102568.19;4980338;27;99628;-67
2023/01/25 05:32:14;;;;;;;;;;;;;;;10.14;47.51;102562.81;4981355;27;114085;-67
2023/01/25 05:34:40;;;;;;;;;;;;;;;10.15;46.83;102571.72;4962831;27;102827;-66
2023/01/25 05:37:07;;;;;;;;;;;;;;;10.16;46.87;102573.34;4979563;27;99506;-66
2023/01/25 05:39:33;;;;;;;;;;;;;;;10.16;47.56;102570.66;4963011;27;100931;-65
2023/01/25 05:41:59;;;;;;;;;;;;;;;10.16;46.78;102573.34;4961601;27;128153;-65
2023/01/25 05:44:25;;;;;;;;;;;;;;;10.16;47.53;102582.25;4960807;27;98366;-66
2023/01/25 05:46:51;;;;;;;;;;;;;;;10.18;47.16;102571.25;4985654;27;119688;-66
2023/01/25 05:49:17;;;;;;;;;;;;;;;10.17;47.38;102569.59;4986855;27;127751;-67
2023/01/25 05:51:43;;;;;;;;;;;;;;;10.17;47.10;102567.75;4972204;27;115098;-66
2023/01/25 05:54:13;;;;;;;;;;;;;;;10.17;47.08;102569.59;4959049;27;111354;-66
2023/01/25 05:56:39;;;;;;;;;;;;;;;10.18;47.56;102565.88;4970861;27;98333;-66
2023/01/25 05:59:05;;;;;;;;;;;;;;;10.18;47.17;102563.16;4969964;27;128183;-66
2023/01/25 06:01:31;;;;;;;;;;;;;;;10.17;46.95;102556.97;4956918;27;127065;-67
2023/01/25 06:03:57;;;;;;;;;;;;;;;10.19;47.42;102564.84;4982932;27;116046;-66
2023/01/25 06:06:23;;;;;;;;;;;;;;;10.18;47.54;102563.16;4972598;27;128829;-67
2023/01/25 06:08:49;;;;;;;;;;;;;;;10.18;47.11;102563.16;4986375;27;117149;-66
2023/01/25 06:11:22;;;;;;;;;;;;;;;10.18;46.91;102565.88;4991478;27;127780;-66
2023/01/25 06:13:48;;;;;;;;;;;;;;;10.17;47.53;102561.53;4962678;27;99150;-66
2023/01/25 06:16:15;;;;;;;;;;;;;;;10.18;47.43;102563.16;4979889;27;98177;-66
2023/01/25 06:18:41;;;;;;;;;;;;;;;10.17;47.26;102559.66;4974980;27;98920;-66
2023/01/25 06:21:07;;;;;;;;;;;;;;;10.18;47.30;102557.78;4978809;27;98336;-67
2023/01/25 06:23:33;;;;;;;;;;;;;;;10.17;46.86;102562.34;4979942;27;119159;-66
2023/01/25 06:26:04;;;;;;;;;;;;;;;10.17;47.42;102556.97;4977659;27;99644;-67
2023/01/25 06:28:31;;;;;;;;;;;;;;;10.17;47.45;102556.97;4991930;27;122803;-66
2023/01/25 06:31:12;;;;;;;;;;;;;;;10.18;47.04;102555.09;4963569;27;98417;-66
2023/01/25 06:33:38;;;;;;;;;;;;;;;10.17;47.07;102562.34;4993018;27;98001;-66
2023/01/25 06:36:06;;;;;;;;;;;;;;;10.18;46.86;102563.16;4976932;27;126068;-67
2023/01/25 06:38:32;;;;;;;;;;;;;;;10.19;47.53;102559.47;4994035;27;121757;-66
2023/01/25 06:40:59;;;;;;;;;;;;;;;10.18;46.95;102555.94;4972532;27;112855;-67
2023/01/25 06:43:25;;;;;;;;;;;;;;;10.18;47.50;102555.09;4977578;27;98327;-66
2023/01/25 06:45:50;;;;;;;;;;;;;;;10.17;47.19;102562.34;4972622;27;127369;-67
2023/01/25 06:48:16;;;;;;;;;;;;;;;10.18;47.55;102564.03;4993449;27;127787;-67
2023/01/25 06:50:42;;;;;;;;;;;;;;;10.18;46.86;102558.63;4974578;27;126866;-66
2023/01/25 06:53:08;;;;;;;;;;;;;;;10.18;47.01;102550.53;4991271;27;98689;-66
2023/01/25 06:55:34;;;;;;;;;;;;;;;10.17;47.19;102551.56;4960419;27;127621;-67
2023/01/25 06:58:00;;;;;;;;;;;;;;;10.17;46.94;102545.34;4974198;27;106016;-67
2023/01/25 07:00:26;;;;;;;;;;;;;;;10.17;47.50;102543.47;4991870;27;98258;-67
2023/01/25 07:02:52;;;;;;;;;;;;;;;10.17;47.28;102545.34;4988571;27;117148;-66
2023/01/25 07:05:18;;;;;;;;;;;;;;;10.16;47.51;102530.22;4989180;27;127936;-68
2023/01/25 07:07:45;;;;;;;;;;;;;;;10.15;46.87;102525.88;4972632;27;128344;-67
2023/01/25 07:10:11;;;;;;;;;;;;;;;10.15;46.74;102523.19;4979720;27;99515;-66
2023/01/25 07:12:37;;;;;;;;;;;;;;;10.16;47.51;102522.97;4975449;27;117503;-66
2023/01/25 07:15:03;;;;;;;;;;;;;;;10.14;47.14;102510.75;4995308;27;114632;-66
2023/01/25 07:17:29;;;;;;;;;;;;;;;10.16;46.88;102516.75;4966581;27;123900;-66
2023/01/25 07:19:55;;;;;;;;;;;;;;;10.16;47.17;102514.88;4964397;27;109783;-67
2023/01/25 07:22:20;;;;;;;;;;;;;;;10.17;47.10;102515.72;4979688;27;112746;-66
2023/01/25 07:24:49;;;;;;;;;;;;;;;10.16;47.11;102506.78;4973088;27;128623;-65
2023/01/25 07:27:16;;;;;;;;;;;;;;;10.17;47.50;102513.00;4994343;27;98696;-66
2023/01/25 07:29:42;;;;;;;;;;;;;;;10.16;46.99;102512.19;4976577;27;127366;-66
2023/01/25 07:32:08;;;;;;;;;;;;;;;10.17;46.97;102510.31;4996144;27;98240;-66
2023/01/25 07:34:34;;;;;;;;;;;;;;;10.18;47.44;102503.88;4981874;27;98217;-67
2023/01/25 07:37:00;;;;;;;;;;;;;;;10.18;47.47;102495.78;4965545;27;127087;-66
2023/01/25 07:39:26;;;;;;;;;;;;;;;10.18;47.14;102496.66;4982667;27;126871;-66
2023/01/25 07:41:52;;;;;;;;;;;;;;;10.18;46.78;102493.94;4981865;27;117892;-66
2023/01/25 07:44:17;;;;;;;;;;;;;;;10.19;46.70;102489.38;4976470;27;127902;-66
2023/01/25 07:46:43;;;;;;;;;;;;;;;10.19;47.01;102490.19;4978127;27;127485;-67
2023/01/25 07:49:09;;;;;;;;;;;;;;;10.20;47.12;102491.84;4960917;27;102293;-66
2023/01/25 07:51:35;;;;;;;;;;;;;;;10.21;47.11;102476.50;4957739;27;117052;-67
2023/01/25 07:54:02;;;;;;;;;;;;;;;10.23;47.26;102474.44;4962403;27;106948;-67
2023/01/25 07:56:33;;;;;;;;;;;;;;;10.23;47.18;102485.22;4995345;27;99542;-66
2023/01/25 07:59:01;;;;;;;;;;;;;;;10.23;47.46;102477.94;4964533;27;98282;-66
2023/01/25 08:01:27;;;;;;;;;;;;;;;10.25;47.28;102477.75;4974042;27;97969;-66
2023/01/25 08:03:55;;;;;;;;;;;;;;;10.25;47.03;102485.84;4960644;27;97914;-66
2023/01/25 08:06:37;;;;;;;;;;;;;;;10.27;46.81;102478.38;4962955;27;99660;-66
2023/01/25 08:09:09;;;;;;;;;;;;;;;10.27;47.15;102481.06;4974187;27;97994;-67
2023/01/25 08:11:35;;;;;;;;;;;;;;;10.28;46.96;102478.16;4980303;27;118774;-67
2023/01/25 08:14:02;;;;;;;;;;;;;;;10.29;46.91;102481.66;4979358;27;129834;-67
2023/01/25 08:16:28;;;;;;;;;;;;;;;10.29;47.16;102478.97;4979180;27;98143;-67
2023/01/25 08:18:57;;;;;;;;;;;;;;;10.30;46.71;102475.25;4965565;27;98152;-67
2023/01/25 08:21:28;;;;;;;;;;;;;;;10.32;47.22;102473.16;4979213;27;97905;-66
2023/01/25 08:23:55;;;;;;;;;;;;;;;10.33;46.97;102472.09;4984007;27;98333;-67
2023/01/25 08:26:21;;;;;;;;;;;;;;;10.33;46.91;102474.78;4967460;27;98165;-66
2023/01/25 08:28:47;;;;;;;;;;;;;;;10.35;47.39;102478.13;4978623;27;110297;-66
2023/01/25 08:31:18;;;;;;;;;;;;;;;10.35;47.33;102471.91;4977318;27;117258;-66
2023/01/25 08:33:45;;;;;;;;;;;;;;;10.36;47.02;102478.94;4964544;27;99429;-66
2023/01/25 08:36:11;;;;;;;;;;;;;;;10.37;46.74;102477.88;4958498;27;99940;-67
2023/01/25 08:38:38;;;;;;;;;;;;;;;10.38;47.01;102479.56;4979876;27;122781;-66
2023/01/25 08:41:15;;;;;;;;;;;;;;;10.38;46.92;102474.16;4977016;27;98051;-66
2023/01/25 08:43:42;;;;;;;;;;;;;;;10.39;46.68;102479.34;4981542;27;99133;-66
2023/01/25 08:46:08;;;;;;;;;;;;;;;10.41;47.34;102466.44;4961670;27;97907;-66
2023/01/25 08:48:34;;;;;;;;;;;;;;;10.43;47.21;102466.25;4983046;27;122314;-66
2023/01/25 08:50:59;;;;;;;;;;;;;;;10.43;47.01;102472.47;4982578;27;98093;-66
2023/01/25 08:53:30;;;;;;;;;;;;;;;10.45;47.20;102458.75;4977611;27;98462;-66
2023/01/25 08:55:56;;;;;;;;;;;;;;;10.47;47.01;102459.38;4966339;27;100115;-66
2023/01/25 08:58:22;;;;;;;;;;;;;;;10.48;47.35;102464.53;4967638;27;104296;-66
2023/01/25 09:00:48;;;;;;;;;;;;;;;10.49;47.20;102462.66;4962560;27;108703;-66
2023/01/25 09:03:14;;;;;;;;;;;;;;;10.48;46.93;102455.63;4978457;27;98724;-66
2023/01/25 09:05:40;;;;;;;;;;;;;;;10.49;46.96;102455.44;4996376;27;98437;-67
2023/01/25 09:08:06;;;;;;;;;;;;;;;10.49;47.20;102446.47;4975799;27;128160;-66
2023/01/25 09:10:33;;;;;;;;;;;;;;;10.50;46.88;102446.28;4975239;27;98558;-66
2023/01/25 09:12:59;;;;;;;;;;;;;;;10.49;46.68;102441.94;4980737;27;98344;-66
2023/01/25 09:15:25;;;;;;;;;;;;;;;10.50;46.75;102440.06;4980542;27;129188;-66
2023/01/25 09:17:52;;;;;;;;;;;;;;;10.50;47.14;102443.59;4978774;27;127942;-66
2023/01/25 09:20:17;;;;;;;;;;;;;;;10.51;46.90;102452.50;4982088;27;110410;-67
2023/01/25 09:22:43;;;;;;;;;;;;;;;10.51;46.76;102450.63;4992247;27;125356;-66
2023/01/25 09:25:10;;;;;;;;;;;;;;;10.52;46.97;102448.75;4973929;27;98058;-67
2023/01/25 09:27:36;;;;;;;;;;;;;;;10.53;47.01;102445.84;4963883;27;99028;-66
2023/01/25 09:30:03;;;;;;;;;;;;;;;10.54;47.13;102438.59;4963650;27;111053;-66
2023/01/25 09:32:29;;;;;;;;;;;;;;;10.55;47.14;102432.97;4969600;27;99563;-66
2023/01/25 09:34:55;;;;;;;;;;;;;;;10.56;47.30;102447.25;4990145;27;128559;-66
2023/01/25 09:37:21;;;;;;;;;;;;;;;10.56;46.98;102439.19;4977491;27;126839;-67
2023/01/25 09:39:47;;;;;;;;;;;;;;;10.57;46.66;102440.81;4974847;27;116817;-66
2023/01/25 09:42:26;;;;;;;;;;;;;;;10.58;46.95;102437.09;4975558;27;127897;-66
2023/01/25 09:45:20;;;;;;;;;;;;;;;10.59;47.28;102436.03;4978306;27;99298;-66
2023/01/25 09:48:09;;;;;;;;;;;;;;;10.60;46.51;102432.28;4980646;27;98103;-66
2023/01/25 09:51:11;;;;;;;;;;;;;;;10.62;47.32;102432.91;4992695;27;98306;-66
2023/01/25 09:53:39;;;;;;;;;;;;;;;10.63;46.74;102433.75;4982506;27;126868;-68
2023/01/25 09:56:22;;;;;;;;;;;;;;;10.64;46.67;102438.91;4969229;27;126131;-67
2023/01/25 09:58:49;;;;;;;;;;;;;;;10.65;46.92;102432.47;4965079;27;98199;-66
2023/01/25 10:01:21;;;;;;;;;;;;;;;10.65;47.06;102429.78;4975351;27;107736;-66
2023/01/25 10:03:54;;;;;;;;;;;;;;;10.66;46.50;102426.03;4995124;27;98052;-67
2023/01/25 10:06:22;;;;;;;;;;;;;;;10.68;46.94;102428.50;4990776;27;98810;-66
2023/01/25 10:08:58;;;;;;;;;;;;;;;10.67;46.57;102418.75;4973552;27;98052;-67
2023/01/25 10:11:26;;;;;;;;;;;;;;;10.68;47.10;102413.13;4976570;27;98547;-66
2023/01/25 10:13:55;;;;;;;;;;;;;;;10.69;47.11;102413.97;4975406;27;98388;-66
2023/01/25 10:16:45;;;;;;;;;;;;;;;10.69;46.78;102414.81;4967128;27;99533;-65
2023/01/25 10:19:36;;;;;;;;;;;;;;;10.71;46.77;102415.41;4986345;27;98001;-66
2023/01/25 10:22:27;;;;;;;;;;;;;;;10.73;47.05;102412.50;4995664;27;97850;-66
2023/01/25 10:25:17;;;;;;;;;;;;;;;10.73;47.06;102410.63;4967991;27;98055;-65
2023/01/25 10:28:02;;;;;;;;;;;;;;;10.73;47.14;102399.84;4992640;27;99495;-66
2023/01/25 10:30:47;;;;;;;;;;;;;;;10.73;46.75;102397.13;4996108;27;97896;-66
2023/01/25 10:33:15;;;;;;;;;;;;;;;10.74;47.15;102385.28;4965125;27;98459;-66
2023/01/25 10:35:45;;;;;;;;;;;;;;;10.74;47.08;102379.91;4962085;27;99789;-66
2023/01/25 10:38:19;;;;;;;;;;;;;;;10.75;47.13;102378.84;4963657;27;98314;-66
2023/01/25 10:40:52;;;;;;;;;;;;;;;10.75;46.80;102381.53;4959254;27;97888;-66
2023/01/25 10:43:21;;;;;;;;;;;;;;;10.77;47.08;102376.75;4980758;27;108953;-66
2023/01/25 10:45:48;;;;;;;;;;;;;;;10.77;47.05;102373.25;4991440;27;120595;-67
2023/01/25 10:48:23;;;;;;;;;;;;;;;10.79;46.77;102365.75;4962342;27;99733;-66
2023/01/25 10:50:51;;;;;;;;;;;;;;;10.81;47.02;102358.25;4980065;27;97975;-66
2023/01/25 10:53:27;;;;;;;;;;;;;;;10.82;46.70;102351.81;4982947;27;98034;-67
2023/01/25 10:56:09;;;;;;;;;;;;;;;10.81;46.81;102350.16;4993039;27;98226;-66
2023/01/25 10:58:38;;;;;;;;;;;;;;;10.78;46.79;102347.91;4980557;27;121084;-66
2023/01/25 11:01:07;;;;;;;;;;;;;;;10.77;46.96;102343.56;4979043;27;106161;-65
2023/01/25 11:03:43;;;;;;;;;;;;;;;10.75;46.75;102338.38;4974410;27;99483;-67
2023/01/25 11:06:09;;;;;;;;;;;;;;;10.74;47.11;102342.13;4966997;27;99566;-65
2023/01/25 11:08:37;;;;;;;;;;;;;;;10.73;47.12;102337.78;4983197;27;128413;-65
2023/01/25 11:11:25;;;;;;;;;;;;;;;10.73;47.09;102337.78;4960001;27;98223;-66
2023/01/25 11:13:53;;;;;;;;;;;;;;;10.72;46.74;102329.91;4982029;27;98102;-65
2023/01/25 11:16:31;;;;;;;;;;;;;;;10.73;46.82;102328.88;4980008;27;97900;-66
2023/01/25 11:18:58;;;;;;;;;;;;;;;10.73;46.79;102329.69;4976794;27;98058;-66
2023/01/25 11:21:31;;;;;;;;;;;;;;;10.73;46.71;102320.78;4979190;27;98198;-65
2023/01/25 11:24:14;;;;;;;;;;;;;;;10.73;46.93;102310.00;4964782;27;99776;-65
2023/01/25 11:26:40;;;;;;;;;;;;;;;10.73;46.59;102307.31;4980915;27;98658;-65
2023/01/25 11:29:19;;;;;;;;;;;;;;;10.73;46.71;102299.22;4956167;27;100228;-66
2023/01/25 11:31:53;;;;;;;;;;;;;;;10.73;46.61;102302.72;4992600;27;103818;-66
2023/01/25 11:34:20;;;;;;;;;;;;;;;10.74;46.73;102292.75;4993670;27;98083;-65
2023/01/25 11:37:17;;;;;;;;;;;;;;;10.72;46.69;102282.19;4958314;27;100670;-65
2023/01/25 11:39:51;;;;;;;;;;;;;;;10.74;46.60;102276.56;4991828;27;122495;-66
2023/01/25 11:42:26;;;;;;;;;;;;;;;10.74;46.96;102277.41;4992928;27;124642;-65
2023/01/25 11:45:11;;;;;;;;;;;;;;;10.74;46.52;102269.31;4963193;27;98201;-65
2023/01/25 11:47:37;;;;;;;;;;;;;;;10.74;47.12;102260.41;4979588;27;97833;-66
2023/01/25 11:50:30;;;;;;;;;;;;;;;10.74;47.06;102263.09;4993997;27;100990;-66
2023/01/25 11:53:15;;;;;;;;;;;;;;;10.75;46.90;102253.94;4981430;27;98317;-65
2023/01/25 11:56:03;;;;;;;;;;;;;;;10.76;46.95;102258.28;4992435;27;98312;-65
2023/01/25 11:58:49;;;;;;;;;;;;;;;10.77;46.72;102238.38;4981029;27;99147;-65
2023/01/25 12:01:27;;;;;;;;;;;;;;;10.76;47.11;102232.13;4996555;27;120971;-65
2023/01/25 12:04:34;;;;;;;;;;;;;;;10.77;46.64;102227.59;4996135;27;98395;-65
2023/01/25 12:07:03;;;;;;;;;;;;;;;10.76;47.14;102228.59;4970907;27;98119;-65
2023/01/25 12:10:05;;;;;;;;;;;;;;;10.77;46.59;102225.69;4975540;27;98300;-66
2023/01/25 12:13:03;;;;;;;;;;;;;;;10.76;46.99;102213.25;4995098;27;98669;-66
2023/01/25 12:15:54;;;;;;;;;;;;;;;10.76;46.63;102213.25;4986418;27;98012;-65
2023/01/25 12:18:23;;;;;;;;;;;;;;;10.77;46.78;102204.13;4967474;27;98475;-66
2023/01/25 12:21:07;;;;;;;;;;;;;;;10.75;46.85;102205.38;4994185;27;98521;-66
2023/01/25 12:23:50;;;;;;;;;;;;;;;10.74;46.73;102206.44;4996139;27;98435;-66
2023/01/25 12:26:32;;;;;;;;;;;;;;;10.73;46.94;102194.03;4994660;27;121305;-66
2023/01/25 12:29:24;;;;;;;;;;;;;;;10.72;46.91;102190.47;4964466;27;107561;-66
2023/01/25 12:31:54;;;;;;;;;;;;;;;10.71;47.18;102188.84;4979179;27;99680;-66
2023/01/25 12:34:37;;;;;;;;;;;;;;;10.72;46.70;102181.56;4983598;27;102794;-68
2023/01/25 12:37:26;;;;;;;;;;;;;;;10.69;46.86;102182.00;4983887;27;98116;-67
2023/01/25 12:39:57;;;;;;;;;;;;;;;10.71;46.80;102182.63;4995082;27;113555;-66
2023/01/25 12:42:35;;;;;;;;;;;;;;;10.70;46.53;102181.81;4978500;27;124414;-66
2023/01/25 12:45:04;;;;;;;;;;;;;;;10.69;47.08;102174.75;4979732;27;123211;-67